sensor_id;sensor_type;location;lat;lon;timestamp;P1;durP1;ratioP1;P2;durP2;ratioP2
24373;SDS011;12498;50.880;12.096;2023-04-24T00:01:11;5.68;;;2.80;;
24373;SDS011;12498;50.880;12.096;2023-04-24T00:03:38;4.50;;;2.58;;
24373;SDS011;12498;50.880;12.096;2023-04-24T00:06:04;4.88;;;2.88;;
24373;SDS011;12498;50.880;12.096;2023-04-24T00:08:33;4.07;;;2.90;;
24373;SDS011;12498;50.880;12.096;2023-04-24T00:10:59;3.78;;;2.92;;
24373;SDS011;12498;50.880;12.096;2023-04-24T00:13:25;7.20;;;2.80;;
24373;SDS011;12498;50.880;12.096;2023-04-24T00:15:53;5.82;;;2.53;;
24373;SDS011;12498;50.880;12.096;2023-04-24T00:18:19;4.85;;;2.83;;
24373;SDS011;12498;50.880;12.096;2023-04-24T00:20:45;5.07;;;2.90;;
24373;SDS011;12498;50.880;12.096;2023-04-24T00:23:11;4.13;;;2.40;;
24373;SDS011;12498;50.880;12.096;2023-04-24T00:25:38;4.85;;;2.38;;
24373;SDS011;12498;50.880;12.096;2023-04-24T00:28:08;5.22;;;2.70;;
24373;SDS011;12498;50.880;12.096;2023-04-24T00:30:34;5.72;;;2.50;;
24373;SDS011;12498;50.880;12.096;2023-04-24T00:33:00;6.95;;;2.45;;
24373;SDS011;12498;50.880;12.096;2023-04-24T00:35:26;4.05;;;2.38;;
24373;SDS011;12498;50.880;12.096;2023-04-24T00:37:52;3.33;;;2.25;;
24373;SDS011;12498;50.880;12.096;2023-04-24T00:40:18;4.57;;;2.53;;
24373;SDS011;12498;50.880;12.096;2023-04-24T00:42:45;3.58;;;2.53;;
24373;SDS011;12498;50.880;12.096;2023-04-24T00:45:11;6.38;;;2.30;;
24373;SDS011;12498;50.880;12.096;2023-04-24T00:47:37;5.75;;;2.38;;
24373;SDS011;12498;50.880;12.096;2023-04-24T00:50:04;4.97;;;2.30;;
24373;SDS011;12498;50.880;12.096;2023-04-24T00:52:31;7.68;;;2.40;;
24373;SDS011;12498;50.880;12.096;2023-04-24T00:54:57;3.90;;;2.40;;
24373;SDS011;12498;50.880;12.096;2023-04-24T00:57:24;4.00;;;2.08;;
24373;SDS011;12498;50.880;12.096;2023-04-24T00:59:50;3.45;;;2.10;;
24373;SDS011;12498;50.880;12.096;2023-04-24T01:02:17;2.90;;;2.13;;
24373;SDS011;12498;50.880;12.096;2023-04-24T01:04:43;2.95;;;2.38;;
24373;SDS011;12498;50.880;12.096;2023-04-24T01:07:09;4.45;;;1.95;;
24373;SDS011;12498;50.880;12.096;2023-04-24T01:09:42;4.22;;;2.25;;
24373;SDS011;12498;50.880;12.096;2023-04-24T01:12:12;2.75;;;1.92;;
24373;SDS011;12498;50.880;12.096;2023-04-24T01:14:38;4.07;;;2.20;;
24373;SDS011;12498;50.880;12.096;2023-04-24T01:17:04;2.78;;;1.83;;
24373;SDS011;12498;50.880;12.096;2023-04-24T01:19:30;4.53;;;2.03;;
24373;SDS011;12498;50.880;12.096;2023-04-24T01:21:58;3.15;;;2.00;;
24373;SDS011;12498;50.880;12.096;2023-04-24T01:24:24;3.38;;;2.05;;
24373;SDS011;12498;50.880;12.096;2023-04-24T01:26:50;5.50;;;2.50;;
24373;SDS011;12498;50.880;12.096;2023-04-24T01:29:16;4.18;;;1.98;;
24373;SDS011;12498;50.880;12.096;2023-04-24T01:31:42;2.28;;;1.83;;
24373;SDS011;12498;50.880;12.096;2023-04-24T01:34:08;3.03;;;2.13;;
24373;SDS011;12498;50.880;12.096;2023-04-24T01:36:34;3.72;;;2.00;;
24373;SDS011;12498;50.880;12.096;2023-04-24T01:39:01;3.30;;;2.33;;
24373;SDS011;12498;50.880;12.096;2023-04-24T01:41:28;4.32;;;2.22;;
24373;SDS011;12498;50.880;12.096;2023-04-24T01:43:55;5.05;;;2.35;;
24373;SDS011;12498;50.880;12.096;2023-04-24T01:46:22;3.65;;;2.10;;
24373;SDS011;12498;50.880;12.096;2023-04-24T01:48:49;4.97;;;2.50;;
24373;SDS011;12498;50.880;12.096;2023-04-24T01:51:16;6.00;;;2.65;;
24373;SDS011;12498;50.880;12.096;2023-04-24T01:53:42;4.38;;;2.33;;
24373;SDS011;12498;50.880;12.096;2023-04-24T01:56:08;3.92;;;2.60;;
24373;SDS011;12498;50.880;12.096;2023-04-24T01:58:34;5.35;;;2.33;;
24373;SDS011;12498;50.880;12.096;2023-04-24T02:01:00;2.75;;;2.10;;
24373;SDS011;12498;50.880;12.096;2023-04-24T02:03:26;3.92;;;2.10;;
24373;SDS011;12498;50.880;12.096;2023-04-24T02:05:52;3.88;;;2.03;;
24373;SDS011;12498;50.880;12.096;2023-04-24T02:08:17;3.58;;;2.30;;
24373;SDS011;12498;50.880;12.096;2023-04-24T02:10:43;4.72;;;2.70;;
24373;SDS011;12498;50.880;12.096;2023-04-24T02:13:09;4.00;;;2.28;;
24373;SDS011;12498;50.880;12.096;2023-04-24T02:15:35;3.85;;;2.35;;
24373;SDS011;12498;50.880;12.096;2023-04-24T02:18:01;4.70;;;2.20;;
24373;SDS011;12498;50.880;12.096;2023-04-24T02:20:26;3.72;;;2.30;;
24373;SDS011;12498;50.880;12.096;2023-04-24T02:22:52;3.35;;;2.13;;
24373;SDS011;12498;50.880;12.096;2023-04-24T02:25:18;4.22;;;2.22;;
24373;SDS011;12498;50.880;12.096;2023-04-24T02:27:43;4.32;;;2.20;;
24373;SDS011;12498;50.880;12.096;2023-04-24T02:30:09;4.38;;;2.30;;
24373;SDS011;12498;50.880;12.096;2023-04-24T02:32:35;3.85;;;2.20;;
24373;SDS011;12498;50.880;12.096;2023-04-24T02:35:00;5.15;;;2.33;;
24373;SDS011;12498;50.880;12.096;2023-04-24T02:37:26;3.22;;;2.20;;
24373;SDS011;12498;50.880;12.096;2023-04-24T02:39:52;6.85;;;2.35;;
24373;SDS011;12498;50.880;12.096;2023-04-24T02:42:17;3.58;;;2.00;;
24373;SDS011;12498;50.880;12.096;2023-04-24T02:44:43;3.55;;;2.13;;
24373;SDS011;12498;50.880;12.096;2023-04-24T02:47:08;3.03;;;2.17;;
24373;SDS011;12498;50.880;12.096;2023-04-24T02:49:34;2.97;;;2.17;;
24373;SDS011;12498;50.880;12.096;2023-04-24T02:52:00;2.97;;;2.20;;
24373;SDS011;12498;50.880;12.096;2023-04-24T02:54:25;2.80;;;2.08;;
24373;SDS011;12498;50.880;12.096;2023-04-24T02:56:51;3.85;;;2.17;;
24373;SDS011;12498;50.880;12.096;2023-04-24T02:59:16;2.60;;;1.90;;
24373;SDS011;12498;50.880;12.096;2023-04-24T03:01:42;3.08;;;2.03;;
24373;SDS011;12498;50.880;12.096;2023-04-24T03:04:08;3.08;;;1.95;;
24373;SDS011;12498;50.880;12.096;2023-04-24T03:06:33;3.78;;;1.90;;
24373;SDS011;12498;50.880;12.096;2023-04-24T03:09:00;4.20;;;2.20;;
24373;SDS011;12498;50.880;12.096;2023-04-24T03:11:26;3.67;;;2.35;;
24373;SDS011;12498;50.880;12.096;2023-04-24T03:13:51;5.63;;;2.30;;
24373;SDS011;12498;50.880;12.096;2023-04-24T03:16:17;4.93;;;2.40;;
24373;SDS011;12498;50.880;12.096;2023-04-24T03:18:43;4.13;;;2.42;;
24373;SDS011;12498;50.880;12.096;2023-04-24T03:21:08;5.30;;;2.65;;
24373;SDS011;12498;50.880;12.096;2023-04-24T03:23:34;6.93;;;2.45;;
24373;SDS011;12498;50.880;12.096;2023-04-24T03:25:59;4.45;;;2.70;;
24373;SDS011;12498;50.880;12.096;2023-04-24T03:28:25;5.78;;;3.80;;
24373;SDS011;12498;50.880;12.096;2023-04-24T03:30:51;4.28;;;2.55;;
24373;SDS011;12498;50.880;12.096;2023-04-24T03:33:17;4.22;;;2.20;;
24373;SDS011;12498;50.880;12.096;2023-04-24T03:35:42;2.90;;;2.10;;
24373;SDS011;12498;50.880;12.096;2023-04-24T03:38:08;5.47;;;2.10;;
24373;SDS011;12498;50.880;12.096;2023-04-24T03:40:33;4.85;;;2.35;;
24373;SDS011;12498;50.880;12.096;2023-04-24T03:42:59;2.80;;;2.30;;
24373;SDS011;12498;50.880;12.096;2023-04-24T03:45:25;3.25;;;2.30;;
24373;SDS011;12498;50.880;12.096;2023-04-24T03:47:50;4.53;;;2.50;;
24373;SDS011;12498;50.880;12.096;2023-04-24T03:50:16;2.75;;;2.40;;
24373;SDS011;12498;50.880;12.096;2023-04-24T03:52:42;5.68;;;3.00;;
24373;SDS011;12498;50.880;12.096;2023-04-24T03:55:07;3.45;;;2.58;;
24373;SDS011;12498;50.880;12.096;2023-04-24T03:57:33;4.18;;;2.60;;
24373;SDS011;12498;50.880;12.096;2023-04-24T03:59:59;4.35;;;2.90;;
24373;SDS011;12498;50.880;12.096;2023-04-24T04:02:24;4.97;;;2.63;;
24373;SDS011;12498;50.880;12.096;2023-04-24T04:04:50;5.95;;;2.65;;
24373;SDS011;12498;50.880;12.096;2023-04-24T04:07:16;7.85;;;3.75;;
24373;SDS011;12498;50.880;12.096;2023-04-24T04:09:41;5.70;;;2.90;;
24373;SDS011;12498;50.880;12.096;2023-04-24T04:12:07;3.67;;;2.65;;
24373;SDS011;12498;50.880;12.096;2023-04-24T04:14:32;5.60;;;2.95;;
24373;SDS011;12498;50.880;12.096;2023-04-24T04:16:58;6.15;;;2.85;;
24373;SDS011;12498;50.880;12.096;2023-04-24T04:19:24;3.75;;;2.67;;
24373;SDS011;12498;50.880;12.096;2023-04-24T04:21:49;6.55;;;3.85;;
24373;SDS011;12498;50.880;12.096;2023-04-24T04:24:21;4.55;;;3.38;;
24373;SDS011;12498;50.880;12.096;2023-04-24T04:26:47;7.07;;;3.35;;
24373;SDS011;12498;50.880;12.096;2023-04-24T04:29:16;5.93;;;3.53;;
24373;SDS011;12498;50.880;12.096;2023-04-24T04:31:42;6.45;;;3.10;;
24373;SDS011;12498;50.880;12.096;2023-04-24T04:34:08;6.95;;;2.70;;
24373;SDS011;12498;50.880;12.096;2023-04-24T04:36:34;9.77;;;3.50;;
24373;SDS011;12498;50.880;12.096;2023-04-24T04:39:02;7.45;;;3.50;;
24373;SDS011;12498;50.880;12.096;2023-04-24T04:41:29;12.85;;;3.65;;
24373;SDS011;12498;50.880;12.096;2023-04-24T04:43:55;8.45;;;2.70;;
24373;SDS011;12498;50.880;12.096;2023-04-24T04:46:23;4.40;;;2.78;;
24373;SDS011;12498;50.880;12.096;2023-04-24T04:48:51;8.45;;;3.67;;
24373;SDS011;12498;50.880;12.096;2023-04-24T04:51:17;4.35;;;2.92;;
24373;SDS011;12498;50.880;12.096;2023-04-24T04:53:43;6.97;;;3.20;;
24373;SDS011;12498;50.880;12.096;2023-04-24T04:56:09;10.48;;;4.68;;
24373;SDS011;12498;50.880;12.096;2023-04-24T04:58:35;16.00;;;4.75;;
24373;SDS011;12498;50.880;12.096;2023-04-24T05:01:01;72.10;;;24.88;;
24373;SDS011;12498;50.880;12.096;2023-04-24T05:03:27;34.70;;;12.32;;
24373;SDS011;12498;50.880;12.096;2023-04-24T05:05:53;67.28;;;21.85;;
24373;SDS011;12498;50.880;12.096;2023-04-24T05:08:19;34.40;;;12.90;;
24373;SDS011;12498;50.880;12.096;2023-04-24T05:10:44;62.25;;;20.48;;
24373;SDS011;12498;50.880;12.096;2023-04-24T05:13:10;40.33;;;15.85;;
24373;SDS011;12498;50.880;12.096;2023-04-24T05:15:36;22.38;;;9.52;;
24373;SDS011;12498;50.880;12.096;2023-04-24T05:18:02;22.15;;;10.50;;
24373;SDS011;12498;50.880;12.096;2023-04-24T05:20:28;17.80;;;8.27;;
24373;SDS011;12498;50.880;12.096;2023-04-24T05:22:54;19.95;;;10.55;;
24373;SDS011;12498;50.880;12.096;2023-04-24T05:25:20;25.75;;;12.30;;
24373;SDS011;12498;50.880;12.096;2023-04-24T05:27:46;27.65;;;12.07;;
24373;SDS011;12498;50.880;12.096;2023-04-24T05:30:12;35.45;;;15.15;;
24373;SDS011;12498;50.880;12.096;2023-04-24T05:32:38;17.35;;;8.13;;
24373;SDS011;12498;50.880;12.096;2023-04-24T05:35:04;23.58;;;10.02;;
24373;SDS011;12498;50.880;12.096;2023-04-24T05:37:30;19.40;;;6.75;;
24373;SDS011;12498;50.880;12.096;2023-04-24T05:39:56;22.38;;;6.25;;
24373;SDS011;12498;50.880;12.096;2023-04-24T05:42:22;66.00;;;15.98;;
24373;SDS011;12498;50.880;12.096;2023-04-24T05:44:47;47.63;;;13.07;;
24373;SDS011;12498;50.880;12.096;2023-04-24T05:47:13;42.47;;;12.38;;
24373;SDS011;12498;50.880;12.096;2023-04-24T05:49:40;59.50;;;13.05;;
24373;SDS011;12498;50.880;12.096;2023-04-24T05:52:06;57.70;;;15.68;;
24373;SDS011;12498;50.880;12.096;2023-04-24T05:54:33;30.45;;;9.02;;
24373;SDS011;12498;50.880;12.096;2023-04-24T05:57:00;54.78;;;17.83;;
24373;SDS011;12498;50.880;12.096;2023-04-24T05:59:29;33.20;;;12.00;;
24373;SDS011;12498;50.880;12.096;2023-04-24T06:01:55;15.13;;;6.75;;
24373;SDS011;12498;50.880;12.096;2023-04-24T06:04:21;31.23;;;12.52;;
24373;SDS011;12498;50.880;12.096;2023-04-24T06:06:47;30.33;;;11.38;;
24373;SDS011;12498;50.880;12.096;2023-04-24T06:09:15;21.95;;;8.82;;
24373;SDS011;12498;50.880;12.096;2023-04-24T06:11:42;30.23;;;9.07;;
24373;SDS011;12498;50.880;12.096;2023-04-24T06:14:08;14.52;;;3.50;;
24373;SDS011;12498;50.880;12.096;2023-04-24T06:16:36;19.70;;;4.85;;
24373;SDS011;12498;50.880;12.096;2023-04-24T06:19:03;38.05;;;9.00;;
24373;SDS011;12498;50.880;12.096;2023-04-24T06:21:29;29.20;;;9.07;;
24373;SDS011;12498;50.880;12.096;2023-04-24T06:23:56;12.70;;;5.07;;
24373;SDS011;12498;50.880;12.096;2023-04-24T06:26:23;12.57;;;6.32;;
24373;SDS011;12498;50.880;12.096;2023-04-24T06:28:51;17.65;;;7.53;;
24373;SDS011;12498;50.880;12.096;2023-04-24T06:31:18;17.33;;;6.95;;
24373;SDS011;12498;50.880;12.096;2023-04-24T06:33:45;10.60;;;4.30;;
24373;SDS011;12498;50.880;12.096;2023-04-24T06:36:11;13.30;;;4.75;;
24373;SDS011;12498;50.880;12.096;2023-04-24T06:38:37;24.60;;;9.55;;
24373;SDS011;12498;50.880;12.096;2023-04-24T06:41:03;42.10;;;14.50;;
24373;SDS011;12498;50.880;12.096;2023-04-24T06:43:30;52.33;;;15.43;;
24373;SDS011;12498;50.880;12.096;2023-04-24T06:45:57;22.00;;;5.65;;
24373;SDS011;12498;50.880;12.096;2023-04-24T06:48:23;33.60;;;7.28;;
24373;SDS011;12498;50.880;12.096;2023-04-24T06:50:50;55.08;;;11.35;;
24373;SDS011;12498;50.880;12.096;2023-04-24T06:53:16;32.97;;;7.13;;
24373;SDS011;12498;50.880;12.096;2023-04-24T06:55:42;43.13;;;7.18;;
24373;SDS011;12498;50.880;12.096;2023-04-24T06:58:09;20.25;;;4.97;;
24373;SDS011;12498;50.880;12.096;2023-04-24T07:00:35;29.10;;;6.80;;
24373;SDS011;12498;50.880;12.096;2023-04-24T07:03:01;18.58;;;4.43;;
24373;SDS011;12498;50.880;12.096;2023-04-24T07:05:28;40.22;;;10.98;;
24373;SDS011;12498;50.880;12.096;2023-04-24T07:07:54;17.85;;;5.13;;
24373;SDS011;12498;50.880;12.096;2023-04-24T07:10:23;9.25;;;2.40;;
24373;SDS011;12498;50.880;12.096;2023-04-24T07:12:49;7.63;;;2.30;;
24373;SDS011;12498;50.880;12.096;2023-04-24T07:15:15;9.43;;;2.13;;
24373;SDS011;12498;50.880;12.096;2023-04-24T07:17:41;4.57;;;1.80;;
24373;SDS011;12498;50.880;12.096;2023-04-24T07:20:11;5.50;;;1.73;;
24373;SDS011;12498;50.880;12.096;2023-04-24T07:22:37;9.68;;;2.33;;
24373;SDS011;12498;50.880;12.096;2023-04-24T07:25:04;5.85;;;2.17;;
24373;SDS011;12498;50.880;12.096;2023-04-24T07:27:30;4.63;;;1.65;;
24373;SDS011;12498;50.880;12.096;2023-04-24T07:29:56;4.63;;;1.45;;
24373;SDS011;12498;50.880;12.096;2023-04-24T07:32:22;3.92;;;1.50;;
24373;SDS011;12498;50.880;12.096;2023-04-24T07:34:48;2.55;;;1.23;;
24373;SDS011;12498;50.880;12.096;2023-04-24T07:37:14;3.88;;;1.20;;
24373;SDS011;12498;50.880;12.096;2023-04-24T07:39:39;3.28;;;1.00;;
24373;SDS011;12498;50.880;12.096;2023-04-24T07:42:05;3.58;;;1.23;;
24373;SDS011;12498;50.880;12.096;2023-04-24T07:44:31;3.25;;;1.30;;
24373;SDS011;12498;50.880;12.096;2023-04-24T07:46:57;3.88;;;1.30;;
24373;SDS011;12498;50.880;12.096;2023-04-24T07:49:23;3.80;;;1.30;;
24373;SDS011;12498;50.880;12.096;2023-04-24T07:51:49;2.53;;;0.98;;
24373;SDS011;12498;50.880;12.096;2023-04-24T07:54:15;2.33;;;0.90;;
24373;SDS011;12498;50.880;12.096;2023-04-24T07:56:42;3.70;;;1.10;;
24373;SDS011;12498;50.880;12.096;2023-04-24T07:59:09;3.22;;;0.95;;
24373;SDS011;12498;50.880;12.096;2023-04-24T08:01:35;6.32;;;1.20;;
24373;SDS011;12498;50.880;12.096;2023-04-24T08:04:01;2.92;;;1.10;;
24373;SDS011;12498;50.880;12.096;2023-04-24T08:06:28;2.30;;;1.10;;
24373;SDS011;12498;50.880;12.096;2023-04-24T08:08:58;4.35;;;1.02;;
24373;SDS011;12498;50.880;12.096;2023-04-24T08:11:24;2.00;;;0.90;;
24373;SDS011;12498;50.880;12.096;2023-04-24T08:13:50;3.50;;;1.38;;
24373;SDS011;12498;50.880;12.096;2023-04-24T08:16:16;1.67;;;0.90;;
24373;SDS011;12498;50.880;12.096;2023-04-24T08:18:42;2.40;;;1.00;;
24373;SDS011;12498;50.880;12.096;2023-04-24T08:21:08;4.20;;;1.00;;
24373;SDS011;12498;50.880;12.096;2023-04-24T08:23:36;3.33;;;0.80;;
24373;SDS011;12498;50.880;12.096;2023-04-24T08:26:02;1.52;;;0.60;;
24373;SDS011;12498;50.880;12.096;2023-04-24T08:28:28;2.83;;;0.77;;
24373;SDS011;12498;50.880;12.096;2023-04-24T08:30:54;0.98;;;0.70;;
24373;SDS011;12498;50.880;12.096;2023-04-24T08:33:21;1.52;;;0.70;;
24373;SDS011;12498;50.880;12.096;2023-04-24T08:35:47;3.22;;;0.90;;
24373;SDS011;12498;50.880;12.096;2023-04-24T08:38:13;4.00;;;0.90;;
24373;SDS011;12498;50.880;12.096;2023-04-24T08:40:39;1.77;;;0.70;;
24373;SDS011;12498;50.880;12.096;2023-04-24T08:43:05;1.52;;;0.70;;
24373;SDS011;12498;50.880;12.096;2023-04-24T08:45:32;2.38;;;1.00;;
24373;SDS011;12498;50.880;12.096;2023-04-24T08:48:01;3.28;;;1.00;;
24373;SDS011;12498;50.880;12.096;2023-04-24T08:50:28;2.20;;;0.80;;
24373;SDS011;12498;50.880;12.096;2023-04-24T08:52:54;1.55;;;0.82;;
24373;SDS011;12498;50.880;12.096;2023-04-24T08:55:21;1.77;;;0.90;;
24373;SDS011;12498;50.880;12.096;2023-04-24T08:57:50;3.22;;;0.90;;
24373;SDS011;12498;50.880;12.096;2023-04-24T09:00:18;3.17;;;0.80;;
24373;SDS011;12498;50.880;12.096;2023-04-24T09:02:44;2.25;;;0.90;;
24373;SDS011;12498;50.880;12.096;2023-04-24T09:05:11;1.55;;;0.82;;
24373;SDS011;12498;50.880;12.096;2023-04-24T09:07:39;1.35;;;0.80;;
24373;SDS011;12498;50.880;12.096;2023-04-24T09:10:05;2.10;;;0.90;;
24373;SDS011;12498;50.880;12.096;2023-04-24T09:12:32;2.53;;;0.90;;
24373;SDS011;12498;50.880;12.096;2023-04-24T09:14:58;3.35;;;1.00;;
24373;SDS011;12498;50.880;12.096;2023-04-24T09:17:25;2.58;;;1.00;;
24373;SDS011;12498;50.880;12.096;2023-04-24T09:19:53;1.42;;;0.80;;
24373;SDS011;12498;50.880;12.096;2023-04-24T09:22:19;2.08;;;1.00;;
24373;SDS011;12498;50.880;12.096;2023-04-24T09:24:45;3.33;;;1.00;;
24373;SDS011;12498;50.880;12.096;2023-04-24T09:27:11;1.92;;;1.00;;
24373;SDS011;12498;50.880;12.096;2023-04-24T09:29:38;1.35;;;0.82;;
24373;SDS011;12498;50.880;12.096;2023-04-24T09:32:20;2.90;;;0.95;;
24373;SDS011;12498;50.880;12.096;2023-04-24T09:34:47;1.77;;;1.00;;
24373;SDS011;12498;50.880;12.096;2023-04-24T09:37:29;2.33;;;1.00;;
24373;SDS011;12498;50.880;12.096;2023-04-24T09:40:08;2.05;;;0.90;;
24373;SDS011;12498;50.880;12.096;2023-04-24T09:42:35;3.63;;;0.70;;
24373;SDS011;12498;50.880;12.096;2023-04-24T09:45:01;1.38;;;0.80;;
24373;SDS011;12498;50.880;12.096;2023-04-24T09:47:28;1.20;;;0.80;;
24373;SDS011;12498;50.880;12.096;2023-04-24T09:50:08;2.45;;;0.90;;
24373;SDS011;12498;50.880;12.096;2023-04-24T09:52:34;1.77;;;0.80;;
24373;SDS011;12498;50.880;12.096;2023-04-24T09:55:00;2.95;;;0.90;;
24373;SDS011;12498;50.880;12.096;2023-04-24T09:57:26;1.58;;;0.90;;
24373;SDS011;12498;50.880;12.096;2023-04-24T09:59:53;4.82;;;0.93;;
24373;SDS011;12498;50.880;12.096;2023-04-24T10:02:19;1.52;;;0.90;;
24373;SDS011;12498;50.880;12.096;2023-04-24T10:04:55;1.95;;;0.90;;
24373;SDS011;12498;50.880;12.096;2023-04-24T10:07:25;1.48;;;0.95;;
24373;SDS011;12498;50.880;12.096;2023-04-24T10:09:51;2.55;;;0.90;;
24373;SDS011;12498;50.880;12.096;2023-04-24T10:12:17;4.60;;;1.00;;
24373;SDS011;12498;50.880;12.096;2023-04-24T10:14:44;2.85;;;1.00;;
24373;SDS011;12498;50.880;12.096;2023-04-24T10:17:10;2.13;;;0.98;;
24373;SDS011;12498;50.880;12.096;2023-04-24T10:19:36;1.80;;;1.00;;
24373;SDS011;12498;50.880;12.096;2023-04-24T10:22:03;1.42;;;1.00;;
24373;SDS011;12498;50.880;12.096;2023-04-24T10:24:29;1.70;;;1.00;;
24373;SDS011;12498;50.880;12.096;2023-04-24T10:26:55;1.48;;;0.90;;
24373;SDS011;12498;50.880;12.096;2023-04-24T10:29:22;4.05;;;1.00;;
24373;SDS011;12498;50.880;12.096;2023-04-24T10:31:48;1.80;;;1.00;;
24373;SDS011;12498;50.880;12.096;2023-04-24T10:34:15;2.55;;;0.90;;
24373;SDS011;12498;50.880;12.096;2023-04-24T10:36:43;2.53;;;1.13;;
24373;SDS011;12498;50.880;12.096;2023-04-24T10:39:12;4.72;;;1.00;;
24373;SDS011;12498;50.880;12.096;2023-04-24T10:41:40;2.75;;;1.48;;
24373;SDS011;12498;50.880;12.096;2023-04-24T10:44:10;1.95;;;0.93;;
24373;SDS011;12498;50.880;12.096;2023-04-24T10:46:37;2.53;;;0.77;;
24373;SDS011;12498;50.880;12.096;2023-04-24T10:49:03;1.45;;;0.88;;
24373;SDS011;12498;50.880;12.096;2023-04-24T10:54:45;2.30;;;0.98;;
24373;SDS011;12498;50.880;12.096;2023-04-24T10:59:44;2.35;;;0.70;;
24373;SDS011;12498;50.880;12.096;2023-04-24T11:02:10;3.70;;;1.00;;
24373;SDS011;12498;50.880;12.096;2023-04-24T11:04:36;4.22;;;1.00;;
24373;SDS011;12498;50.880;12.096;2023-04-24T11:07:02;3.30;;;1.00;;
24373;SDS011;12498;50.880;12.096;2023-04-24T11:09:32;3.30;;;0.90;;
24373;SDS011;12498;50.880;12.096;2023-04-24T11:12:07;1.58;;;0.90;;
24373;SDS011;12498;50.880;12.096;2023-04-24T11:17:32;1.60;;;0.90;;
24373;SDS011;12498;50.880;12.096;2023-04-24T11:20:02;1.70;;;0.90;;
24373;SDS011;12498;50.880;12.096;2023-04-24T11:22:30;1.10;;;0.80;;
24373;SDS011;12498;50.880;12.096;2023-04-24T11:24:59;3.80;;;0.98;;
24373;SDS011;12498;50.880;12.096;2023-04-24T11:27:29;5.10;;;0.90;;
24373;SDS011;12498;50.880;12.096;2023-04-24T11:32:26;1.63;;;1.00;;
24373;SDS011;12498;50.880;12.096;2023-04-24T11:34:53;2.88;;;1.02;;
24373;SDS011;12498;50.880;12.096;2023-04-24T11:37:21;2.40;;;1.27;;
24373;SDS011;12498;50.880;12.096;2023-04-24T11:39:49;2.80;;;1.02;;
24373;SDS011;12498;50.880;12.096;2023-04-24T11:42:15;2.45;;;1.05;;
24373;SDS011;12498;50.880;12.096;2023-04-24T11:44:42;2.28;;;1.10;;
24373;SDS011;12498;50.880;12.096;2023-04-24T11:47:08;3.42;;;1.20;;
24373;SDS011;12498;50.880;12.096;2023-04-24T11:49:37;2.03;;;1.13;;
24373;SDS011;12498;50.880;12.096;2023-04-24T11:52:04;3.90;;;1.10;;
24373;SDS011;12498;50.880;12.096;2023-04-24T11:54:30;3.88;;;1.05;;
24373;SDS011;12498;50.880;12.096;2023-04-24T11:56:56;2.10;;;1.02;;
24373;SDS011;12498;50.880;12.096;2023-04-24T11:59:22;2.10;;;1.00;;
24373;SDS011;12498;50.880;12.096;2023-04-24T12:01:49;1.80;;;0.98;;
24373;SDS011;12498;50.880;12.096;2023-04-24T12:04:16;1.77;;;0.98;;
24373;SDS011;12498;50.880;12.096;2023-04-24T12:09:26;1.48;;;0.90;;
24373;SDS011;12498;50.880;12.096;2023-04-24T12:11:53;2.40;;;1.00;;
24373;SDS011;12498;50.880;12.096;2023-04-24T12:14:22;2.70;;;1.10;;
24373;SDS011;12498;50.880;12.096;2023-04-24T12:16:49;2.08;;;0.90;;
24373;SDS011;12498;50.880;12.096;2023-04-24T12:19:22;2.85;;;1.20;;
24373;SDS011;12498;50.880;12.096;2023-04-24T12:22:04;1.25;;;1.00;;
24373;SDS011;12498;50.880;12.096;2023-04-24T12:24:30;1.27;;;1.00;;
24373;SDS011;12498;50.880;12.096;2023-04-24T12:26:57;1.85;;;1.10;;
24373;SDS011;12498;50.880;12.096;2023-04-24T12:29:23;2.67;;;1.20;;
24373;SDS011;12498;50.880;12.096;2023-04-24T12:31:50;2.25;;;1.00;;
24373;SDS011;12498;50.880;12.096;2023-04-24T12:34:19;0.90;;;0.80;;
24373;SDS011;12498;50.880;12.096;2023-04-24T12:36:45;1.63;;;1.08;;
24373;SDS011;12498;50.880;12.096;2023-04-24T12:39:18;4.65;;;1.08;;
24373;SDS011;12498;50.880;12.096;2023-04-24T12:41:57;3.22;;;0.95;;
24373;SDS011;12498;50.880;12.096;2023-04-24T12:46:50;3.10;;;1.08;;
24373;SDS011;12498;50.880;12.096;2023-04-24T12:49:16;1.58;;;0.90;;
24373;SDS011;12498;50.880;12.096;2023-04-24T12:51:42;2.67;;;0.90;;
24373;SDS011;12498;50.880;12.096;2023-04-24T12:54:08;3.03;;;0.98;;
24373;SDS011;12498;50.880;12.096;2023-04-24T12:56:34;1.20;;;0.90;;
24373;SDS011;12498;50.880;12.096;2023-04-24T12:59:04;1.77;;;1.00;;
24373;SDS011;12498;50.880;12.096;2023-04-24T13:01:30;2.50;;;1.00;;
24373;SDS011;12498;50.880;12.096;2023-04-24T13:03:56;1.60;;;0.90;;
24373;SDS011;12498;50.880;12.096;2023-04-24T13:06:22;1.50;;;0.90;;
24373;SDS011;12498;50.880;12.096;2023-04-24T13:08:48;1.85;;;0.95;;
24373;SDS011;12498;50.880;12.096;2023-04-24T13:11:14;2.58;;;1.10;;
24373;SDS011;12498;50.880;12.096;2023-04-24T13:13:40;2.28;;;1.17;;
24373;SDS011;12498;50.880;12.096;2023-04-24T13:16:06;4.72;;;1.10;;
24373;SDS011;12498;50.880;12.096;2023-04-24T13:18:32;1.08;;;0.98;;
24373;SDS011;12498;50.880;12.096;2023-04-24T13:20:58;2.80;;;1.02;;
24373;SDS011;12498;50.880;12.096;2023-04-24T13:23:24;3.65;;;1.30;;
24373;SDS011;12498;50.880;12.096;2023-04-24T13:25:51;4.25;;;1.13;;
24373;SDS011;12498;50.880;12.096;2023-04-24T13:28:20;1.80;;;1.10;;
24373;SDS011;12498;50.880;12.096;2023-04-24T13:30:46;1.85;;;1.10;;
24373;SDS011;12498;50.880;12.096;2023-04-24T13:33:13;1.25;;;0.77;;
24373;SDS011;12498;50.880;12.096;2023-04-24T13:35:39;1.05;;;0.75;;
24373;SDS011;12498;50.880;12.096;2023-04-24T13:38:05;1.98;;;1.10;;
24373;SDS011;12498;50.880;12.096;2023-04-24T13:40:31;3.15;;;1.52;;
24373;SDS011;12498;50.880;12.096;2023-04-24T13:42:57;1.73;;;1.20;;
24373;SDS011;12498;50.880;12.096;2023-04-24T13:45:23;2.75;;;0.90;;
24373;SDS011;12498;50.880;12.096;2023-04-24T13:47:49;2.13;;;0.90;;
24373;SDS011;12498;50.880;12.096;2023-04-24T13:50:15;4.68;;;0.90;;
24373;SDS011;12498;50.880;12.096;2023-04-24T13:52:40;1.90;;;0.70;;
24373;SDS011;12498;50.880;12.096;2023-04-24T13:55:07;1.58;;;0.82;;
24373;SDS011;12498;50.880;12.096;2023-04-24T13:57:32;2.10;;;0.77;;
24373;SDS011;12498;50.880;12.096;2023-04-24T13:59:58;1.85;;;0.88;;
24373;SDS011;12498;50.880;12.096;2023-04-24T14:02:28;2.47;;;1.20;;
24373;SDS011;12498;50.880;12.096;2023-04-24T14:04:54;2.17;;;1.10;;
24373;SDS011;12498;50.880;12.096;2023-04-24T14:07:20;1.50;;;0.90;;
24373;SDS011;12498;50.880;12.096;2023-04-24T14:09:46;2.30;;;1.23;;
24373;SDS011;12498;50.880;12.096;2023-04-24T14:12:12;1.23;;;1.05;;
24373;SDS011;12498;50.880;12.096;2023-04-24T14:14:38;4.07;;;1.50;;
24373;SDS011;12498;50.880;12.096;2023-04-24T14:17:04;2.42;;;1.10;;
24373;SDS011;12498;50.880;12.096;2023-04-24T14:19:30;1.65;;;1.35;;
24373;SDS011;12498;50.880;12.096;2023-04-24T14:21:56;4.22;;;1.40;;
24373;SDS011;12498;50.880;12.096;2023-04-24T14:24:23;2.53;;;1.23;;
24373;SDS011;12498;50.880;12.096;2023-04-24T14:26:48;1.33;;;1.23;;
24373;SDS011;12498;50.880;12.096;2023-04-24T14:29:14;2.13;;;1.10;;
24373;SDS011;12498;50.880;12.096;2023-04-24T14:31:41;2.38;;;1.25;;
24373;SDS011;12498;50.880;12.096;2023-04-24T14:34:08;3.70;;;1.35;;
24373;SDS011;12498;50.880;12.096;2023-04-24T14:36:34;1.58;;;1.33;;
24373;SDS011;12498;50.880;12.096;2023-04-24T14:39:00;2.00;;;1.25;;
24373;SDS011;12498;50.880;12.096;2023-04-24T14:41:28;1.85;;;1.00;;
24373;SDS011;12498;50.880;12.096;2023-04-24T14:43:53;1.75;;;1.20;;